createdAt,value
2017-12-01T00:02:14.207Z,18.83
2017-12-01T00:04:41.713Z,17.40
2017-12-01T00:07:09.202Z,19.50
2017-12-01T00:09:36.688Z,19.80
2017-12-01T00:12:04.212Z,20.60
2017-12-01T00:14:31.708Z,20.50
2017-12-01T00:16:59.989Z,19.37
2017-12-01T00:19:27.480Z,17.30
2017-12-01T00:21:54.983Z,18.30
2017-12-01T00:24:22.501Z,21.93
2017-12-01T00:26:49.985Z,21.47
2017-12-01T00:29:17.489Z,21.40
2017-12-01T00:31:44.969Z,21.77
2017-12-01T00:34:12.477Z,22.13
2017-12-01T00:36:40.730Z,18.13
2017-12-01T00:39:08.224Z,23.57
2017-12-01T00:41:35.729Z,19.70
2017-12-01T00:44:03.217Z,21.80
2017-12-01T00:46:30.728Z,20.57
2017-12-01T00:48:59.005Z,18.30
2017-12-01T00:51:26.516Z,21.23
2017-12-01T00:53:54.776Z,17.50
2017-12-01T00:56:22.261Z,19.70
2017-12-01T00:58:49.768Z,18.90
2017-12-01T01:01:17.254Z,16.87
2017-12-01T01:03:45.525Z,17.93
2017-12-01T01:06:13.008Z,17.50
2017-12-01T01:08:40.536Z,20.37
2017-12-01T01:11:08.019Z,20.97
2017-12-01T01:13:35.517Z,21.50
2017-12-01T01:16:03.029Z,20.30
2017-12-01T01:18:30.520Z,21.93
2017-12-01T01:20:58.028Z,22.33
2017-12-01T01:23:26.292Z,23.37
2017-12-01T01:25:53.797Z,24.40
2017-12-01T01:28:21.284Z,25.43
2017-12-01T01:30:48.768Z,27.07
2017-12-01T01:33:17.049Z,25.50
2017-12-01T01:35:45.301Z,23.07
2017-12-01T01:38:12.800Z,23.27
2017-12-01T01:40:40.296Z,24.80
2017-12-01T01:43:07.808Z,22.57
2017-12-01T01:45:35.292Z,26.13
2017-12-01T01:48:02.779Z,25.00
2017-12-01T01:50:30.296Z,27.00
2017-12-01T01:52:57.785Z,26.83
2017-12-01T01:55:25.307Z,26.00
2017-12-01T01:57:52.792Z,26.60
2017-12-01T02:00:20.316Z,26.57
2017-12-01T02:02:47.808Z,26.33
2017-12-01T02:05:15.290Z,25.93
2017-12-01T02:07:43.586Z,27.77
2017-12-01T02:10:11.832Z,26.73
2017-12-01T02:12:39.330Z,27.40
2017-12-01T02:15:06.816Z,28.00
2017-12-01T02:17:34.349Z,28.10
2017-12-01T02:20:01.851Z,28.53
2017-12-01T02:22:30.839Z,27.50
2017-12-01T02:24:58.337Z,23.07
2017-12-01T02:27:26.591Z,23.23
2017-12-01T02:29:54.095Z,24.20
2017-12-01T02:32:21.584Z,28.43
2017-12-01T02:34:49.096Z,24.70
2017-12-01T02:37:16.578Z,27.87
2017-12-01T02:39:44.069Z,26.17
2017-12-01T02:42:11.582Z,29.77
2017-12-01T02:44:39.086Z,24.53
2017-12-01T02:47:06.585Z,26.83
2017-12-01T02:49:34.089Z,25.73
2017-12-01T02:52:01.601Z,27.13
2017-12-01T02:54:29.096Z,27.70
2017-12-01T02:56:56.593Z,27.90
2017-12-01T02:59:24.099Z,29.53
2017-12-01T03:01:51.591Z,26.83
2017-12-01T03:04:19.865Z,30.50
2017-12-01T03:06:48.124Z,25.40
2017-12-01T03:09:15.634Z,27.17
2017-12-01T03:11:43.126Z,28.80
2017-12-01T03:14:10.632Z,27.17
2017-12-01T03:16:38.133Z,26.00
2017-12-01T03:19:05.619Z,29.17
2017-12-01T03:21:33.913Z,27.80
2017-12-01T03:24:02.180Z,28.00
2017-12-01T03:26:31.131Z,27.60
2017-12-01T03:28:58.645Z,27.90
2017-12-01T03:31:26.152Z,27.57
2017-12-01T03:33:53.640Z,28.80
2017-12-01T03:36:21.913Z,29.80
2017-12-01T03:38:50.185Z,28.10
2017-12-01T03:41:18.439Z,27.57
2017-12-01T03:43:45.959Z,26.70
2017-12-01T03:46:13.450Z,27.60
2017-12-01T03:48:40.974Z,26.90
2017-12-01T03:51:08.492Z,27.47
2017-12-01T03:53:36.741Z,31.27
2017-12-01T03:56:04.230Z,28.40
2017-12-01T03:58:31.750Z,27.77
2017-12-01T04:00:59.367Z,28.73
2017-12-01T04:03:26.858Z,29.10
2017-12-01T04:05:54.378Z,30.47
2017-12-01T04:08:21.875Z,29.23
2017-12-01T04:10:49.380Z,29.20
2017-12-01T04:13:16.934Z,30.90
2017-12-01T04:15:44.436Z,28.47
2017-12-01T04:18:11.942Z,27.60
2017-12-01T04:20:40.198Z,25.17
2017-12-01T04:23:07.785Z,23.67
2017-12-01T04:25:35.269Z,26.03
2017-12-01T04:28:02.753Z,24.73
2017-12-01T04:30:30.276Z,23.97
2017-12-01T04:32:57.792Z,22.27
2017-12-01T04:35:26.084Z,22.17
2017-12-01T04:37:53.580Z,21.23
2017-12-01T04:40:21.068Z,23.53
2017-12-01T04:42:48.589Z,23.40
2017-12-01T04:45:16.081Z,24.10
2017-12-01T04:47:43.569Z,25.90
2017-12-01T04:50:11.515Z,20.90
2017-12-01T04:52:39.770Z,24.23
2017-12-01T04:55:07.278Z,22.30
2017-12-01T04:57:34.759Z,22.60
2017-12-01T05:00:02.283Z,22.00
2017-12-01T05:02:29.771Z,23.30
2017-12-01T05:04:57.303Z,22.50
2017-12-01T05:07:24.812Z,22.43
2017-12-01T05:09:52.303Z,22.20
2017-12-01T05:12:19.812Z,23.47
2017-12-01T05:14:47.295Z,24.00
2017-12-01T05:17:15.580Z,21.37
2017-12-01T05:19:43.848Z,23.40
2017-12-01T05:22:12.132Z,22.30
2017-12-01T05:24:40.429Z,23.53
2017-12-01T05:27:07.927Z,24.83
2017-12-01T05:29:35.416Z,26.70
2017-12-01T05:32:03.701Z,23.37
2017-12-01T05:34:31.187Z,27.20
2017-12-01T05:36:58.696Z,25.90
2017-12-01T05:39:26.992Z,27.93
2017-12-01T05:41:54.492Z,27.47
2017-12-01T05:44:22.502Z,26.70
2017-12-01T05:46:50.820Z,27.60
2017-12-01T05:49:18.314Z,27.03
2017-12-01T05:51:46.632Z,27.03
2017-12-01T05:54:14.117Z,27.90
2017-12-01T05:56:41.611Z,28.33
2017-12-01T05:59:09.133Z,27.90
2017-12-01T06:01:36.620Z,29.90
2017-12-01T06:04:04.138Z,25.23
2017-12-01T06:06:31.650Z,25.50
2017-12-01T06:08:59.913Z,25.10
2017-12-01T06:11:28.226Z,28.13
2017-12-01T06:13:55.712Z,26.10
2017-12-01T06:16:23.243Z,25.97
2017-12-01T06:18:50.756Z,27.13
2017-12-01T06:21:18.266Z,24.83
2017-12-01T06:23:45.764Z,24.17
2017-12-01T06:26:13.288Z,29.17
2017-12-01T06:28:40.781Z,27.00
2017-12-01T06:31:08.290Z,27.33
2017-12-01T06:33:35.777Z,27.30
2017-12-01T06:36:04.063Z,27.20
2017-12-01T06:38:31.563Z,27.47
2017-12-01T06:40:59.061Z,28.47
2017-12-01T06:43:26.563Z,30.33
2017-12-01T06:45:54.830Z,30.57
2017-12-01T06:48:22.378Z,32.73
2017-12-01T06:50:50.643Z,28.10
2017-12-01T06:53:18.166Z,26.67
2017-12-01T06:55:45.656Z,28.50
2017-12-01T06:58:13.150Z,26.73
2017-12-01T07:00:40.678Z,28.77
2017-12-01T07:03:08.197Z,28.83
2017-12-01T07:05:35.688Z,26.80
2017-12-01T07:08:03.227Z,26.40
2017-12-01T07:10:30.716Z,27.00
2017-12-01T07:12:58.965Z,26.50
2017-12-01T07:15:26.492Z,26.53
2017-12-01T07:17:53.991Z,27.30
2017-12-01T07:20:21.476Z,27.63
2017-12-01T07:22:49.018Z,25.83
2017-12-01T07:25:17.278Z,26.87
2017-12-01T07:27:44.820Z,26.30
2017-12-01T07:30:12.308Z,25.20
2017-12-01T07:32:40.589Z,27.33
2017-12-01T07:35:08.852Z,25.90
2017-12-01T07:37:37.139Z,26.97
2017-12-01T07:40:05.400Z,26.67
2017-12-01T07:42:33.693Z,26.67
2017-12-01T07:45:04.001Z,26.83
2017-12-01T07:47:32.276Z,25.67
2017-12-01T07:50:00.530Z,27.90
2017-12-01T07:52:28.052Z,28.77
2017-12-01T07:54:55.546Z,25.90
2017-12-01T07:57:23.069Z,27.67
2017-12-01T07:59:50.579Z,27.17
2017-12-01T08:02:18.844Z,26.07
2017-12-01T08:04:46.361Z,25.40
2017-12-01T08:07:13.862Z,28.30
2017-12-01T08:09:42.144Z,25.80
2017-12-01T08:12:10.424Z,27.10
2017-12-01T08:14:38.696Z,26.43
2017-12-01T08:17:18.798Z,30.50
2017-12-01T08:19:46.284Z,29.70
2017-12-01T08:22:25.804Z,28.20
2017-12-01T08:25:05.164Z,29.20
2017-12-01T08:27:32.639Z,27.83
2017-12-01T08:30:00.909Z,29.03
2017-12-01T08:32:29.192Z,30.20
2017-12-01T08:34:56.682Z,29.03
2017-12-01T08:37:24.170Z,29.40
2017-12-01T08:39:51.679Z,30.60
2017-12-01T08:42:19.156Z,30.93
2017-12-01T08:44:47.231Z,31.87
2017-12-01T08:47:14.747Z,33.00
2017-12-01T08:49:42.871Z,32.80
2017-12-01T08:52:10.368Z,34.23
2017-12-01T08:54:38.623Z,32.13
2017-12-01T08:57:06.897Z,30.97
2017-12-01T08:59:34.387Z,30.47
2017-12-01T09:02:01.894Z,34.00
2017-12-01T09:04:29.376Z,32.83
2017-12-01T09:06:57.655Z,31.63
2017-12-01T09:09:25.936Z,30.57
2017-12-01T09:11:54.228Z,31.73
2017-12-01T09:14:21.722Z,34.97
2017-12-01T09:16:49.218Z,32.33
2017-12-01T09:19:17.505Z,31.83
2017-12-01T09:21:44.988Z,30.73
2017-12-01T09:24:12.472Z,31.50
2017-12-01T09:26:40.093Z,34.17
2017-12-01T09:29:07.589Z,32.73
2017-12-01T09:31:35.079Z,34.43
2017-12-01T09:34:03.357Z,30.77
2017-12-01T09:36:31.613Z,29.60
2017-12-01T09:38:59.141Z,31.30
2017-12-01T09:41:26.635Z,30.20
2017-12-01T09:43:54.895Z,32.17
2017-12-01T09:46:22.411Z,29.47
2017-12-01T09:48:49.897Z,30.57
2017-12-01T09:51:17.422Z,27.63
2017-12-01T09:53:44.942Z,30.67
2017-12-01T09:56:13.198Z,29.60
2017-12-01T09:58:40.715Z,31.00
2017-12-01T10:01:08.210Z,29.43
2017-12-01T10:03:35.715Z,28.10
2017-12-01T10:06:03.224Z,29.93
2017-12-01T10:08:30.706Z,27.13
2017-12-01T10:10:58.284Z,29.00
2017-12-01T10:13:25.769Z,26.70
2017-12-01T10:15:53.252Z,33.20
2017-12-01T10:18:20.768Z,31.87
2017-12-01T10:20:48.258Z,33.50
2017-12-01T10:23:15.810Z,30.57
2017-12-01T10:25:43.295Z,31.97
2017-12-01T10:28:11.552Z,34.73
2017-12-01T10:30:39.095Z,32.53
2017-12-01T10:33:06.589Z,32.80
2017-12-01T10:35:34.842Z,30.27
2017-12-01T10:38:02.359Z,32.50
2017-12-01T10:40:29.886Z,30.97
2017-12-01T10:42:58.222Z,30.70
2017-12-01T10:45:25.717Z,30.70
2017-12-01T10:47:53.228Z,28.40
2017-12-01T10:50:20.708Z,27.50
2017-12-01T10:52:48.226Z,27.23
2017-12-01T10:55:15.713Z,27.10
2017-12-01T10:57:43.240Z,26.80
2017-12-01T11:00:10.725Z,24.90
2017-12-01T11:02:38.233Z,27.43
2017-12-01T11:05:05.723Z,27.80
2017-12-01T11:07:33.255Z,30.87
2017-12-01T11:10:00.734Z,30.73
2017-12-01T11:15:02.233Z,29.53
2017-12-01T11:17:30.506Z,27.57
2017-12-01T11:19:58.786Z,32.87
2017-12-01T11:22:27.042Z,32.63
2017-12-01T11:24:54.553Z,31.43
2017-12-01T11:27:22.040Z,34.60
2017-12-01T11:29:49.549Z,37.60
2017-12-01T11:32:17.033Z,36.20
2017-12-01T11:34:44.542Z,35.10
2017-12-01T11:37:12.790Z,30.43
2017-12-01T11:39:40.315Z,36.40
2017-12-01T11:42:07.803Z,32.33
2017-12-01T11:44:35.292Z,31.60
2017-12-01T11:47:03.579Z,35.93
2017-12-01T11:49:31.088Z,23.23
2017-12-01T11:51:58.572Z,28.17
2017-12-01T11:54:26.853Z,29.90
2017-12-01T11:56:55.135Z,28.97
2017-12-01T11:59:23.418Z,28.60
2017-12-01T12:01:50.934Z,25.20
2017-12-01T12:04:19.233Z,28.20
2017-12-01T12:06:47.524Z,28.67
2017-12-01T12:09:15.019Z,23.80
2017-12-01T12:11:42.541Z,23.37
2017-12-01T12:14:10.048Z,18.97
2017-12-01T12:16:37.570Z,21.50
2017-12-01T12:19:05.056Z,19.33
2017-12-01T12:21:32.552Z,21.70
2017-12-01T12:24:00.828Z,19.80
2017-12-01T12:26:29.076Z,21.90
2017-12-01T12:28:56.556Z,17.93
2017-12-01T12:31:24.847Z,22.60
2017-12-01T12:33:52.353Z,21.10
2017-12-01T12:36:19.858Z,22.43
2017-12-01T12:38:47.343Z,22.50
2017-12-01T12:41:14.857Z,24.07
2017-12-01T12:43:43.116Z,24.63
2017-12-01T12:46:10.613Z,25.90
2017-12-01T12:48:38.180Z,26.03
2017-12-01T12:51:05.673Z,27.00
2017-12-01T12:53:33.197Z,23.80
2017-12-01T12:56:00.677Z,24.07
2017-12-01T12:58:29.125Z,26.90
2017-12-01T13:00:56.634Z,29.47
2017-12-01T13:03:24.161Z,29.97
2017-12-01T13:05:51.655Z,30.20
2017-12-01T13:08:19.166Z,24.90
2017-12-01T13:10:46.653Z,17.70
2017-12-01T13:13:14.168Z,15.07
2017-12-01T13:15:41.653Z,12.73
2017-12-01T13:18:09.168Z,15.87
2017-12-01T13:20:36.648Z,16.93
2017-12-01T13:23:04.191Z,10.87
2017-12-01T13:25:31.699Z,11.43
2017-12-01T13:27:59.184Z,12.73
2017-12-01T13:30:27.456Z,13.80
2017-12-01T13:32:55.709Z,16.47
2017-12-01T13:35:23.222Z,17.03
2017-12-01T13:37:50.733Z,18.30
2017-12-01T13:40:19.019Z,20.20
2017-12-01T13:42:47.292Z,23.40
2017-12-01T13:45:15.548Z,25.90
2017-12-01T13:47:43.821Z,27.63
2017-12-01T13:50:11.307Z,29.20
2017-12-01T13:52:38.826Z,30.60
2017-12-01T13:55:06.309Z,30.00
2017-12-01T13:57:34.568Z,29.37
2017-12-01T14:00:02.125Z,31.60
2017-12-01T14:02:29.613Z,30.47
2017-12-01T14:04:57.104Z,33.00
2017-12-01T14:07:25.383Z,34.13
2017-12-01T14:09:52.876Z,33.90
2017-12-01T14:12:21.184Z,33.57
2017-12-01T14:14:48.693Z,26.60
2017-12-01T14:17:16.184Z,26.87
2017-12-01T14:19:44.451Z,26.67
2017-12-01T14:22:12.699Z,25.30
2017-12-01T14:24:40.212Z,23.90
2017-12-01T14:27:07.697Z,26.03
2017-12-01T14:29:35.305Z,24.40
2017-12-01T14:32:02.787Z,26.40
2017-12-01T14:34:30.273Z,26.97
2017-12-01T14:36:57.795Z,24.17
2017-12-01T14:39:25.287Z,25.40
2017-12-01T14:41:52.801Z,22.07
2017-12-01T14:44:20.308Z,20.93
2017-12-01T14:46:48.726Z,18.30
2017-12-01T14:49:16.240Z,17.10
2017-12-01T14:51:43.722Z,19.57
2017-12-01T14:54:12.000Z,17.53
2017-12-01T14:56:40.255Z,17.43
2017-12-01T14:59:07.780Z,17.43
2017-12-01T15:01:35.279Z,17.73
2017-12-01T15:04:03.564Z,17.30
2017-12-01T15:06:31.813Z,18.60
2017-12-01T15:08:59.318Z,18.47
2017-12-01T15:11:26.837Z,17.40
2017-12-01T15:13:54.911Z,19.40
2017-12-01T15:16:23.192Z,16.10
2017-12-01T15:18:51.473Z,19.00
2017-12-01T15:21:19.732Z,18.20
2017-12-01T15:23:47.243Z,19.70
2017-12-01T15:26:14.753Z,18.60
2017-12-01T15:28:43.000Z,20.47
2017-12-01T15:31:10.484Z,20.53
2017-12-01T15:33:38.775Z,22.07
2017-12-01T15:36:06.295Z,23.50
2017-12-01T15:38:33.785Z,22.33
2017-12-01T15:41:02.079Z,23.07
2017-12-01T15:43:29.653Z,24.70
2017-12-01T15:45:57.225Z,22.50
2017-12-01T15:48:24.731Z,25.70
2017-12-01T15:50:53.034Z,25.97
2017-12-01T15:53:20.600Z,24.57
2017-12-01T15:55:48.123Z,25.53
2017-12-01T15:58:16.380Z,25.83
2017-12-01T16:00:44.686Z,24.40
2017-12-01T16:03:12.260Z,29.10
2017-12-01T16:05:40.559Z,28.60
2017-12-01T16:08:08.351Z,30.37
2017-12-01T16:10:37.330Z,25.90
2017-12-01T16:13:04.817Z,30.33
2017-12-01T16:15:32.333Z,31.80
2017-12-01T16:17:59.817Z,31.50
2017-12-01T16:20:28.230Z,29.30
2017-12-01T16:22:55.727Z,28.10
2017-12-01T16:25:23.216Z,31.03
2017-12-01T16:27:51.498Z,29.77
2017-12-01T16:30:19.747Z,29.10
2017-12-01T16:32:51.196Z,30.93
2017-12-01T16:35:14.803Z,31.00
2017-12-01T16:37:42.306Z,33.50
2017-12-01T16:40:09.868Z,31.60
2017-12-01T16:42:37.360Z,33.47
2017-12-01T16:45:06.213Z,32.77
2017-12-01T16:47:33.709Z,30.80
2017-12-01T16:50:01.926Z,29.63
2017-12-01T16:52:29.420Z,30.93
2017-12-01T16:54:57.703Z,29.27
2017-12-01T16:57:25.968Z,28.90
2017-12-01T16:59:54.247Z,26.70
2017-12-01T17:02:22.517Z,30.23
2017-12-01T17:04:50.800Z,27.10
2017-12-01T17:07:19.065Z,29.57
2017-12-01T17:09:47.320Z,30.23
2017-12-01T17:12:14.830Z,28.07
2017-12-01T17:14:42.322Z,30.93
2017-12-01T17:17:10.268Z,28.97
2017-12-01T17:19:37.756Z,30.50
2017-12-01T17:22:05.320Z,31.00
2017-12-01T17:24:33.616Z,29.30
2017-12-01T17:27:01.894Z,28.97
2017-12-01T17:29:30.766Z,30.70
2017-12-01T17:31:58.296Z,27.13
2017-12-01T17:34:25.790Z,26.67
2017-12-01T17:36:54.053Z,30.33
2017-12-01T17:39:21.564Z,27.70
2017-12-01T17:41:49.193Z,28.40
2017-12-01T17:44:25.582Z,28.80
2017-12-01T17:46:53.078Z,26.37
2017-12-01T17:49:20.600Z,26.90
2017-12-01T17:51:48.953Z,28.33
2017-12-01T17:54:17.629Z,29.50
2017-12-01T17:56:45.356Z,28.33
2017-12-01T17:59:12.883Z,29.27
2017-12-01T18:01:40.397Z,29.23
2017-12-01T18:04:07.958Z,28.87
2017-12-01T18:06:37.624Z,28.00
2017-12-01T18:09:05.207Z,28.20
2017-12-01T18:11:32.713Z,31.43
2017-12-01T18:14:00.789Z,30.13
2017-12-01T18:16:28.308Z,28.60
2017-12-01T18:18:56.568Z,30.37
2017-12-01T18:21:24.108Z,27.33
2017-12-01T18:23:51.596Z,27.57
2017-12-01T18:26:19.871Z,26.50
2017-12-01T18:28:48.155Z,30.53
2017-12-01T18:31:15.668Z,29.97
2017-12-01T18:33:43.188Z,27.77
2017-12-01T18:36:10.716Z,29.50
2017-12-01T18:38:38.970Z,26.10
2017-12-01T18:41:06.504Z,30.10
2017-12-01T18:43:34.607Z,29.07
2017-12-01T18:46:02.092Z,30.23
2017-12-01T18:48:29.648Z,30.30
2017-12-01T18:50:57.139Z,27.40
2017-12-01T18:53:24.677Z,30.17
2017-12-01T18:55:52.178Z,28.50
2017-12-01T18:58:19.686Z,27.90
2017-12-01T19:00:47.172Z,28.07
2017-12-01T19:03:14.693Z,31.47
2017-12-01T19:05:42.212Z,30.27
2017-12-01T19:08:09.710Z,29.90
2017-12-01T19:10:37.307Z,28.57
2017-12-01T19:13:04.834Z,30.13
2017-12-01T19:15:32.344Z,26.60
2017-12-01T19:18:00.609Z,26.50
2017-12-01T19:20:28.151Z,27.77
2017-12-01T19:22:55.660Z,29.80
2017-12-01T19:25:23.199Z,27.03
2017-12-01T19:27:50.756Z,29.73
2017-12-01T19:30:19.020Z,27.10
2017-12-01T19:32:46.550Z,27.03
2017-12-01T19:35:14.067Z,28.23
2017-12-01T19:37:41.606Z,28.87
2017-12-01T19:40:09.869Z,29.90
2017-12-01T19:42:37.404Z,28.33
2017-12-01T19:45:04.938Z,27.73
2017-12-01T19:47:32.465Z,30.37
2017-12-01T19:50:00.440Z,26.70
2017-12-01T19:52:27.977Z,28.50
2017-12-01T19:54:56.255Z,27.77
2017-12-01T19:57:24.543Z,28.83
2017-12-01T19:59:54.081Z,30.90
2017-12-01T20:02:22.395Z,27.80
2017-12-01T20:04:49.938Z,29.27
2017-12-01T20:07:17.446Z,28.57
2017-12-01T20:09:44.932Z,28.00
2017-12-01T20:12:12.449Z,30.87
2017-12-01T20:14:40.720Z,27.23
2017-12-01T20:17:09.000Z,29.23
2017-12-01T20:19:36.501Z,27.87
2017-12-01T20:22:04.017Z,28.67
2017-12-01T20:24:32.656Z,27.40
2017-12-01T20:27:00.196Z,29.40
2017-12-01T20:29:27.691Z,30.60
2017-12-01T20:31:55.964Z,27.80
2017-12-01T20:34:24.252Z,26.67
2017-12-01T20:36:52.556Z,28.33
2017-12-01T20:39:20.072Z,28.63
2017-12-01T20:41:48.337Z,28.07
2017-12-01T20:44:15.926Z,30.27
2017-12-01T20:46:44.170Z,28.60
2017-12-01T20:49:11.691Z,29.17
2017-12-01T20:51:39.155Z,26.27
2017-12-01T20:54:06.730Z,29.17
2017-12-01T20:56:34.257Z,29.00
2017-12-01T20:59:01.772Z,26.60
2017-12-01T21:01:30.007Z,30.20
2017-12-01T21:03:57.672Z,28.30
2017-12-01T21:06:25.183Z,28.17
2017-12-01T21:08:52.692Z,27.20
2017-12-01T21:11:20.220Z,24.17
2017-12-01T21:13:47.726Z,28.10
2017-12-01T21:16:16.008Z,31.23
2017-12-01T21:18:44.293Z,30.47
2017-12-01T21:21:11.796Z,31.90
2017-12-01T21:23:39.304Z,30.93
2017-12-01T21:26:06.822Z,27.77
2017-12-01T21:28:34.346Z,27.60
2017-12-01T21:31:01.882Z,33.90
2017-12-01T21:33:29.859Z,31.27
2017-12-01T21:35:57.395Z,33.50
2017-12-01T21:38:25.709Z,29.87
2017-12-01T21:40:53.202Z,30.73
2017-12-01T21:43:20.819Z,30.57
2017-12-01T21:45:49.027Z,30.07
2017-12-01T21:48:17.970Z,33.00
2017-12-01T21:50:46.113Z,29.10
2017-12-01T21:53:13.639Z,31.63
2017-12-01T21:55:41.087Z,32.00
2017-12-01T21:58:08.631Z,33.60
2017-12-01T22:00:38.835Z,31.47
2017-12-01T22:03:06.371Z,34.43
2017-12-01T22:05:34.645Z,33.27
2017-12-01T22:08:02.177Z,32.17
2017-12-01T22:10:29.732Z,31.47
2017-12-01T22:12:57.236Z,37.00
2017-12-01T22:15:24.722Z,34.57
2017-12-01T22:17:52.263Z,35.87
2017-12-01T22:20:19.770Z,35.50
2017-12-01T22:22:47.284Z,38.27
2017-12-01T22:25:14.828Z,34.70
2017-12-01T22:27:42.385Z,40.60
2017-12-01T22:30:10.656Z,36.77
2017-12-01T22:32:38.219Z,37.93
2017-12-01T22:35:05.719Z,38.13
2017-12-01T22:37:33.224Z,35.57
2017-12-01T22:40:00.756Z,36.20
2017-12-01T22:42:28.268Z,37.27
2017-12-01T22:44:55.771Z,35.80
2017-12-01T22:47:24.028Z,35.03
2017-12-01T22:49:51.577Z,33.60
2017-12-01T22:52:19.101Z,36.03
2017-12-01T22:54:46.584Z,35.10
2017-12-01T22:57:14.095Z,32.23
2017-12-01T22:59:41.606Z,31.53
2017-12-01T23:02:09.128Z,35.00
2017-12-01T23:04:36.667Z,33.00
2017-12-01T23:07:04.200Z,31.80
2017-12-01T23:09:31.709Z,34.37
2017-12-01T23:11:59.192Z,36.10
2017-12-01T23:14:26.700Z,34.33
2017-12-01T23:16:54.200Z,32.30
2017-12-01T23:19:21.724Z,32.73
2017-12-01T23:21:49.250Z,35.30
2017-12-01T23:24:16.769Z,34.23
2017-12-01T23:26:44.256Z,33.10
2017-12-01T23:29:12.540Z,32.90
2017-12-01T23:31:40.802Z,31.90
2017-12-01T23:34:09.089Z,35.57
2017-12-01T23:36:37.342Z,34.10
2017-12-01T23:39:04.859Z,35.87
2017-12-01T23:41:32.414Z,34.47
2017-12-01T23:43:59.927Z,34.60
2017-12-01T23:46:28.210Z,32.50
2017-12-01T23:48:56.464Z,31.87
2017-12-01T23:51:24.785Z,32.53
2017-12-01T23:53:52.287Z,32.17
2017-12-01T23:56:19.809Z,30.23
2017-12-01T23:58:47.304Z,36.27
